Time;durP1;ratioP1;P1;durP2;ratioP2;P2;SDS_P1;SDS_P2;PMS_P1;PMS_P2;Temp;Humidity;BMP_temperature;BMP_pressure;BME280_temperature;BME280_humidity;BME280_pressure;Samples;Min_cycle;Max_cycle;Signal;HPM_P1;HPM_P2
2023/09/23 00:01:42;;;;;;;1.30;0.57;;;22.00;91.60;;;;;;4860719;28;44953;-58
2023/09/23 00:04:10;;;;;;;1.52;0.70;;;22.00;91.60;;;;;;4872728;28;45836;-58
2023/09/23 00:07:20;;;;;;;0.50;0.40;;;22.00;91.60;;;;;;4828283;28;44887;-59
2023/09/23 00:10:05;;;;;;;0.73;0.40;;;22.10;91.70;;;;;;4781510;28;45471;-58
2023/09/23 00:12:48;;;;;;;0.60;0.50;;;22.10;91.70;;;;;;4782261;28;45583;-58
2023/09/23 00:15:16;;;;;;;1.02;0.50;;;22.10;91.70;;;;;;4796150;28;47617;-58
2023/09/23 00:17:45;;;;;;;1.00;0.50;;;22.10;91.70;;;;;;4802496;28;45559;-58
2023/09/23 00:23:21;;;;;;;0.77;0.50;;;22.10;91.70;;;;;;4789901;28;45683;-57
2023/09/23 00:25:49;;;;;;;1.17;0.57;;;22.10;91.60;;;;;;4801837;28;47414;-58
2023/09/23 00:28:30;;;;;;;0.68;0.50;;;22.10;91.50;;;;;;4817872;28;45142;-58
2023/09/23 00:31:37;;;;;;;0.60;0.40;;;22.10;91.50;;;;;;4839604;28;45426;-57
2023/09/23 00:34:05;;;;;;;0.35;0.35;;;22.10;91.40;;;;;;4806363;28;45399;-58
2023/09/23 00:36:53;;;;;;;0.60;0.40;;;22.10;91.30;;;;;;4782513;28;46247;-58
2023/09/23 00:39:50;;;;;;;0.85;0.50;;;22.10;91.30;;;;;;4822629;27;45312;-58
2023/09/23 00:42:42;;;;;;;1.08;0.55;;;22.10;91.20;;;;;;4793164;28;45624;-58
2023/09/23 00:45:35;;;;;;;0.50;0.50;;;22.10;91.20;;;;;;4780607;28;45778;-58
2023/09/23 00:48:08;;;;;;;0.68;0.40;;;22.10;91.20;;;;;;4806059;28;46176;-58
2023/09/23 00:50:46;;;;;;;0.63;0.40;;;22.10;91.20;;;;;;4781028;28;45532;-58
2023/09/23 00:53:42;;;;;;;0.45;0.35;;;22.10;91.20;;;;;;4809061;28;45309;-58
2023/09/23 00:56:46;;;;;;;1.17;0.45;;;22.10;91.20;;;;;;4788975;28;45682;-58
2023/09/23 00:59:35;;;;;;;2.75;0.50;;;22.10;91.10;;;;;;4805116;28;46727;-58
2023/09/23 01:02:03;;;;;;;0.85;0.50;;;22.10;91.10;;;;;;4750874;28;45138;-58
2023/09/23 01:04:30;;;;;;;0.30;0.30;;;22.10;91.10;;;;;;4772506;28;45205;-58
2023/09/23 01:07:09;;;;;;;0.30;0.30;;;22.10;91.10;;;;;;4802324;28;45690;-58
2023/09/23 01:10:11;;;;;;;0.50;0.40;;;22.10;91.10;;;;;;4792505;28;45677;-58
2023/09/23 01:12:51;;;;;;;0.60;0.40;;;22.00;91.30;;;;;;4795673;28;45193;-58
2023/09/23 01:15:41;;;;;;;0.63;0.47;;;22.10;91.00;;;;;;4793981;28;45404;-57
2023/09/23 01:18:28;;;;;;;1.52;0.40;;;22.10;90.90;;;;;;4813952;28;45414;-58
2023/09/23 01:21:21;;;;;;;0.75;0.50;;;22.10;90.90;;;;;;4796907;28;45831;-58
2023/09/23 01:23:50;;;;;;;0.55;0.40;;;22.10;90.80;;;;;;4793172;28;45237;-58
2023/09/23 01:30:06;;;;;;;0.73;0.60;;;22.10;90.70;;;;;;4750205;28;45672;-57
2023/09/23 01:33:08;;;;;;;2.00;0.57;;;22.10;90.80;;;;;;4827029;28;46858;-58
2023/09/23 01:36:02;;;;;;;1.00;0.60;;;22.10;90.70;;;;;;4804034;28;45508;-58
2023/09/23 01:38:43;;;;;;;0.40;0.40;;;22.10;90.60;;;;;;4792219;28;44933;-58
2023/09/23 01:41:15;;;;;;;0.50;0.50;;;22.00;90.50;;;;;;4812300;28;45342;-58
2023/09/23 01:44:07;;;;;;;0.93;0.63;;;22.10;90.50;;;;;;4828931;28;45470;-58
2023/09/23 01:46:59;;;;;;;2.00;0.70;;;22.00;90.40;;;;;;4795840;28;45488;-58
2023/09/23 01:49:48;;;;;;;0.75;0.70;;;22.00;90.40;;;;;;4829434;27;45482;-58
2023/09/23 01:52:22;;;;;;;1.30;0.57;;;22.00;90.30;;;;;;4802722;28;45306;-58
2023/09/23 01:55:30;;;;;;;2.03;0.75;;;22.00;90.30;;;;;;4843837;28;46360;-58
2023/09/23 01:58:39;;;;;;;0.70;0.43;;;22.00;90.20;;;;;;4809206;28;45465;-57
2023/09/23 02:01:25;;;;;;;0.60;0.50;;;22.10;90.30;;;;;;4793847;28;45020;-58
2023/09/23 02:04:07;;;;;;;0.80;0.50;;;22.00;90.20;;;;;;4796528;28;45491;-57
2023/09/23 02:06:56;;;;;;;0.88;0.50;;;22.00;90.20;;;;;;4811565;28;45744;-58
2023/09/23 02:09:34;;;;;;;0.90;0.60;;;22.00;90.10;;;;;;4801224;28;45398;-58
2023/09/23 02:12:35;;;;;;;0.38;0.25;;;22.10;90.20;;;;;;4784640;28;45484;-58
2023/09/23 02:15:06;;;;;;;0.63;0.50;;;22.10;90.10;;;;;;4794490;28;45495;-58
2023/09/23 02:17:37;;;;;;;1.15;0.73;;;22.10;90.10;;;;;;4802666;28;46317;-58
2023/09/23 02:23:32;;;;;;;1.50;0.70;;;22.10;90.00;;;;;;4727923;28;45154;-58
2023/09/23 02:26:00;;;;;;;3.20;0.68;;;22.10;90.00;;;;;;4795368;28;45183;-58
2023/09/23 02:28:28;;;;;;;2.75;0.80;;;22.10;90.00;;;;;;4793396;28;47176;-58
2023/09/23 02:30:57;;;;;;;1.35;0.65;;;22.00;89.80;;;;;;4794066;28;45493;-58
2023/09/23 02:33:34;;;;;;;2.35;0.70;;;22.00;89.80;;;;;;4796757;28;45638;-58
2023/09/23 02:36:14;;;;;;;1.30;0.57;;;22.10;89.70;;;;;;4808239;28;45005;-58
2023/09/23 02:38:50;;;;;;;3.00;0.55;;;22.10;89.10;;;;;;4790868;28;46274;-58
2023/09/23 02:41:39;;;;;;;0.95;0.43;;;22.00;88.40;;;;;;4768707;28;45374;-58
2023/09/23 02:44:07;;;;;;;1.45;0.60;;;22.00;87.20;;;;;;4815630;28;45210;-58
2023/09/23 02:46:41;;;;;;;1.65;0.50;;;21.90;86.60;;;;;;4810054;28;45591;-58
2023/09/23 02:49:34;;;;;;;2.15;0.77;;;21.90;85.70;;;;;;4776701;28;45714;-58
2023/09/23 02:52:22;;;;;;;2.10;0.80;;;21.90;84.60;;;;;;4832755;28;46033;-58
2023/09/23 02:54:50;;;;;;;1.77;0.40;;;21.90;84.50;;;;;;4802107;28;45471;-57
2023/09/23 02:57:17;;;;;;;1.48;0.40;;;21.90;84.90;;;;;;4814778;28;45464;-58
2023/09/23 03:00:17;;;;;;;0.73;0.40;;;22.00;85.20;;;;;;4822065;28;46453;-58
2023/09/23 03:03:03;;;;;;;1.17;0.57;;;22.00;85.00;;;;;;4761946;27;45402;-58
2023/09/23 03:08:47;;;;;;;0.52;0.50;;;22.00;85.40;;;;;;4792107;28;45338;-57
2023/09/23 03:11:47;;;;;;;2.88;0.50;;;22.00;85.60;;;;;;4795960;28;45277;-57
2023/09/23 03:14:51;;;;;;;1.00;0.40;;;22.00;85.60;;;;;;4759178;28;45268;-58
2023/09/23 03:17:34;;;;;;;1.65;0.70;;;22.00;85.60;;;;;;4791636;28;45704;-58
2023/09/23 03:20:30;;;;;;;0.95;0.50;;;22.00;85.70;;;;;;4826310;28;45468;-58
2023/09/23 03:23:23;;;;;;;1.45;0.50;;;22.00;85.70;;;;;;4790890;28;45739;-58
2023/09/23 03:26:18;;;;;;;1.50;0.40;;;22.00;85.70;;;;;;4780938;28;45526;-58
2023/09/23 03:29:18;;;;;;;0.50;0.50;;;22.00;85.80;;;;;;4808179;28;45703;-58
2023/09/23 03:32:20;;;;;;;1.55;0.35;;;22.00;85.80;;;;;;4805412;28;45793;-57
2023/09/23 03:34:50;;;;;;;1.70;0.60;;;22.00;85.80;;;;;;4788798;28;47697;-58
2023/09/23 03:37:29;;;;;;;0.38;0.22;;;22.00;86.00;;;;;;4757685;28;45920;-58
2023/09/23 03:40:24;;;;;;;0.88;0.30;;;22.00;85.90;;;;;;4815007;28;45407;-58
2023/09/23 03:42:55;;;;;;;4.32;0.77;;;22.00;85.80;;;;;;4795053;28;45375;-58
2023/09/23 03:45:52;;;;;;;0.95;0.50;;;22.00;86.00;;;;;;4782270;28;45413;-58
2023/09/23 03:48:19;;;;;;;1.15;0.47;;;22.00;85.90;;;;;;4809270;28;45292;-58
2023/09/23 03:51:04;;;;;;;0.40;0.32;;;22.00;85.90;;;;;;4785999;28;45333;-58
2023/09/23 03:53:48;;;;;;;2.60;0.40;;;22.00;85.80;;;;;;4775211;28;45686;-58
2023/09/23 03:56:27;;;;;;;3.63;0.55;;;22.00;85.70;;;;;;4787325;28;45930;-58
2023/09/23 03:58:55;;;;;;;1.00;0.30;;;22.00;85.90;;;;;;4803459;28;45576;-58
2023/09/23 04:01:49;;;;;;;1.10;0.50;;;22.00;85.80;;;;;;4789529;28;45596;-58
2023/09/23 04:05:06;;;;;;;1.38;0.68;;;22.00;85.70;;;;;;4818971;28;45386;-58
2023/09/23 04:07:39;;;;;;;1.52;0.50;;;22.00;85.70;;;;;;4784327;28;47080;-58
2023/09/23 04:10:34;;;;;;;3.35;0.40;;;22.00;85.60;;;;;;4770771;28;45115;-58
2023/09/23 04:13:22;;;;;;;2.75;0.70;;;22.00;85.70;;;;;;4796887;28;45337;-58
2023/09/23 04:16:30;;;;;;;0.60;0.50;;;22.00;85.60;;;;;;4786945;28;45341;-58
2023/09/23 04:19:05;;;;;;;1.10;0.40;;;22.10;85.60;;;;;;4770693;28;46169;-58
2023/09/23 04:21:39;;;;;;;0.88;0.40;;;22.10;85.60;;;;;;4804499;28;45272;-58
2023/09/23 04:24:43;;;;;;;1.08;0.40;;;22.00;85.30;;;;;;4774279;28;45291;-58
2023/09/23 04:27:11;;;;;;;1.55;0.50;;;22.10;85.40;;;;;;4786523;28;45597;-58
2023/09/23 04:30:04;;;;;;;1.23;0.45;;;22.10;85.40;;;;;;4800276;28;46523;-58
2023/09/23 04:32:42;;;;;;;1.85;0.52;;;22.10;85.30;;;;;;4797396;28;45501;-58
2023/09/23 04:38:11;;;;;;;2.22;0.52;;;22.00;85.20;;;;;;4747978;28;45369;-58
2023/09/23 04:41:13;;;;;;;0.50;0.45;;;22.00;85.10;;;;;;4832918;28;46290;-57
2023/09/23 04:44:06;;;;;;;0.90;0.60;;;22.10;85.20;;;;;;4787069;28;45206;-57
2023/09/23 04:47:37;;;;;;;0.82;0.60;;;22.10;85.20;;;;;;4751086;28;45356;-59
2023/09/23 04:50:05;;;;;;;1.02;0.40;;;22.10;85.20;;;;;;4789736;28;45164;-58
2023/09/23 04:52:32;;;;;;;2.10;0.40;;;22.10;85.30;;;;;;4788856;28;45621;-58
2023/09/23 04:55:00;;;;;;;1.25;0.52;;;22.00;85.00;;;;;;4787571;28;46122;-58
2023/09/23 04:57:27;;;;;;;1.25;0.45;;;22.10;85.20;;;;;;4771075;28;45245;-58
2023/09/23 05:00:26;;;;;;;0.38;0.35;;;22.10;85.10;;;;;;4819519;28;45033;-58
2023/09/23 05:03:23;;;;;;;2.08;0.40;;;22.10;85.10;;;;;;4810557;28;45971;-58
2023/09/23 05:06:15;;;;;;;1.77;0.50;;;22.10;85.30;;;;;;4780599;28;45423;-59
2023/09/23 05:08:43;;;;;;;1.25;0.52;;;22.00;85.20;;;;;;4794479;28;45368;-58
2023/09/23 05:11:11;;;;;;;1.02;0.35;;;22.00;85.20;;;;;;4812724;28;45292;-58
2023/09/23 05:16:37;;;;;;;0.30;0.30;;;22.00;85.30;;;;;;4809623;28;46021;-58
2023/09/23 05:19:46;;;;;;;1.05;0.43;;;22.00;85.20;;;;;;4891828;28;45069;-57
2023/09/23 05:22:44;;;;;;;1.40;0.60;;;22.00;85.20;;;;;;4775962;28;45118;-59
2023/09/23 05:25:31;;;;;;;1.63;0.38;;;22.10;85.20;;;;;;4787583;28;46621;-58
2023/09/23 05:28:38;;;;;;;2.70;0.52;;;22.10;85.10;;;;;;4795483;28;45303;-57
2023/09/23 05:31:18;;;;;;;2.30;0.65;;;22.10;85.10;;;;;;4843474;28;45353;-57
2023/09/23 05:34:34;;;;;;;1.55;0.60;;;22.10;84.90;;;;;;4845872;28;45446;-56
2023/09/23 05:37:27;;;;;;;2.85;0.50;;;22.10;85.20;;;;;;4822454;28;46183;-56
2023/09/23 05:40:27;;;;;;;0.77;0.40;;;22.10;85.00;;;;;;4800431;28;45538;-56
2023/09/23 05:43:14;;;;;;;1.85;0.50;;;22.10;85.00;;;;;;4807810;28;45285;-56
2023/09/23 05:45:41;;;;;;;0.50;0.40;;;22.10;84.90;;;;;;4797972;28;45586;-56
2023/09/23 05:48:35;;;;;;;1.55;0.60;;;22.10;84.80;;;;;;4777529;28;47680;-57
2023/09/23 05:51:56;;;;;;;4.80;0.77;;;22.10;84.70;;;;;;4787927;27;45177;-56
2023/09/23 05:54:33;;;;;;;1.38;0.52;;;22.10;84.80;;;;;;4789280;27;45532;-58
2023/09/23 05:57:34;;;;;;;1.30;0.55;;;22.10;84.60;;;;;;4801027;28;45380;-56
2023/09/23 06:00:26;;;;;;;1.33;0.65;;;22.10;84.30;;;;;;4771518;28;46895;-58
2023/09/23 06:03:17;;;;;;;1.23;0.47;;;22.10;84.20;;;;;;4803259;28;45079;-56
2023/09/23 06:05:44;;;;;;;1.80;0.88;;;22.10;84.00;;;;;;4790924;28;45158;-56
2023/09/23 06:08:52;;;;;;;0.82;0.50;;;22.20;84.00;;;;;;4787690;28;45297;-57
2023/09/23 06:11:21;;;;;;;1.25;0.60;;;22.20;83.70;;;;;;4784488;28;46654;-56
2023/09/23 06:13:47;;;;;;;3.10;0.52;;;22.20;83.70;;;;;;4768374;28;45322;-57
2023/09/23 06:16:29;;;;;;;1.13;0.45;;;22.20;83.60;;;;;;4788328;28;45786;-57
2023/09/23 06:19:18;;;;;;;0.88;0.38;;;22.20;83.30;;;;;;4828557;28;45260;-57
2023/09/23 06:22:09;;;;;;;3.30;0.90;;;22.20;83.20;;;;;;4802712;28;45855;-57
2023/09/23 06:24:41;;;;;;;3.55;0.80;;;22.20;83.20;;;;;;4777004;28;45278;-58
2023/09/23 06:30:15;;;;;;;2.72;0.60;;;22.20;83.10;;;;;;4782277;28;45334;-58
2023/09/23 06:32:57;;;;;;;1.08;0.60;;;22.20;83.30;;;;;;4783388;27;45887;-58
2023/09/23 06:35:45;;;;;;;1.48;0.65;;;22.20;83.20;;;;;;4820798;28;45507;-58
2023/09/23 06:38:12;;;;;;;2.05;0.68;;;22.20;83.30;;;;;;4802988;28;45338;-58
2023/09/23 06:41:24;;;;;;;1.30;0.60;;;22.20;83.50;;;;;;4899904;28;45261;-57
2023/09/23 06:44:19;;;;;;;2.28;0.63;;;22.20;83.60;;;;;;4792826;28;46698;-58
2023/09/23 06:46:46;;;;;;;1.35;0.60;;;22.20;83.80;;;;;;4785942;28;45417;-58
2023/09/23 06:49:43;;;;;;;1.40;0.93;;;22.20;83.90;;;;;;4822603;28;45400;-58
2023/09/23 06:52:30;;;;;;;2.28;0.60;;;22.10;83.90;;;;;;4783706;28;45374;-57
2023/09/23 06:55:29;;;;;;;1.35;0.55;;;22.10;84.00;;;;;;4799659;28;45807;-57
2023/09/23 06:57:56;;;;;;;3.85;0.75;;;22.10;84.00;;;;;;4766297;28;45359;-57
2023/09/23 07:03:07;;;;;;;2.35;0.50;;;22.10;84.30;;;;;;4749324;28;45409;-57
2023/09/23 07:05:34;;;;;;;2.10;0.70;;;22.10;84.00;;;;;;4800218;28;46309;-57
2023/09/23 07:08:17;;;;;;;1.45;0.50;;;22.10;84.00;;;;;;4833221;28;45425;-57
2023/09/23 07:10:44;;;;;;;2.50;0.70;;;22.10;84.30;;;;;;4817154;27;45193;-56
2023/09/23 07:13:14;;;;;;;1.00;0.50;;;22.10;84.40;;;;;;4826897;28;45747;-56
2023/09/23 07:15:56;;;;;;;3.13;0.50;;;22.10;84.80;;;;;;4823416;28;46340;-56
2023/09/23 07:19:14;;;;;;;3.55;0.70;;;22.10;85.00;;;;;;4911353;28;44926;-56
2023/09/23 07:24:44;;;;;;;2.67;0.68;;;22.10;85.40;;;;;;4801461;28;45455;-56
2023/09/23 07:27:37;;;;;;;3.25;0.68;;;22.10;85.50;;;;;;4808315;28;46165;-56
2023/09/23 07:30:08;;;;;;;2.17;1.00;;;22.10;85.40;;;;;;4812953;28;45476;-56
2023/09/23 07:32:38;;;;;;;3.92;0.63;;;22.10;85.50;;;;;;4800197;28;45183;-56
2023/09/23 07:35:50;;;;;;;1.05;0.65;;;22.10;85.70;;;;;;4772186;28;45311;-56
2023/09/23 07:38:26;;;;;;;2.63;0.80;;;22.10;86.00;;;;;;4798675;28;46196;-56
2023/09/23 07:40:54;;;;;;;1.98;0.60;;;22.10;86.00;;;;;;4751017;28;45455;-56
2023/09/23 07:43:51;;;;;;;5.68;0.85;;;22.10;86.20;;;;;;4792438;28;44957;-55
2023/09/23 07:46:39;;;;;;;1.70;0.85;;;22.10;86.10;;;;;;4778681;28;45131;-56
2023/09/23 07:49:38;;;;;;;1.25;0.60;;;22.10;86.30;;;;;;4818565;27;46339;-56
2023/09/23 07:52:50;;;;;;;2.55;0.68;;;22.10;86.50;;;;;;4784305;28;45584;-56
2023/09/23 07:55:18;;;;;;;3.60;0.80;;;22.10;86.50;;;;;;4769438;28;45056;-56
2023/09/23 07:57:45;;;;;;;2.03;0.52;;;22.10;86.60;;;;;;4787372;28;44934;-56
2023/09/23 08:00:50;;;;;;;1.52;0.50;;;22.10;86.50;;;;;;4807881;28;46373;-56
2023/09/23 08:06:49;;;;;;;2.03;0.60;;;22.10;86.70;;;;;;4789604;28;44953;-56
2023/09/23 08:09:28;;;;;;;0.63;0.40;;;22.10;86.70;;;;;;4805226;28;45049;-56
2023/09/23 08:12:11;;;;;;;1.52;0.50;;;22.10;87.00;;;;;;4791419;28;46267;-56
2023/09/23 08:15:05;;;;;;;2.35;0.77;;;22.10;87.00;;;;;;4763675;28;45271;-56
2023/09/23 08:17:56;;;;;;;1.05;0.47;;;22.10;87.20;;;;;;4803188;28;45586;-56
2023/09/23 08:20:23;;;;;;;1.55;0.80;;;22.10;87.30;;;;;;4753636;28;45121;-56
2023/09/23 08:23:15;;;;;;;1.98;0.55;;;22.00;87.20;;;;;;4812588;28;46957;-56
2023/09/23 08:26:16;;;;;;;1.95;0.70;;;22.10;87.40;;;;;;4787941;28;45992;-56
2023/09/23 08:28:57;;;;;;;3.13;0.52;;;22.10;87.50;;;;;;4803375;28;45237;-56
2023/09/23 08:31:45;;;;;;;2.25;0.52;;;22.10;87.50;;;;;;4804873;28;46110;-56
2023/09/23 08:34:41;;;;;;;1.25;0.43;;;22.10;87.50;;;;;;4778074;28;46155;-56
2023/09/23 08:37:35;;;;;;;1.65;0.65;;;22.10;87.50;;;;;;4797922;28;45464;-56
2023/09/23 08:40:05;;;;;;;1.00;0.52;;;22.10;87.50;;;;;;4761391;28;45431;-56
2023/09/23 08:46:16;;;;;;;1.55;0.60;;;22.10;87.40;;;;;;4762065;28;45136;-56
2023/09/23 08:49:10;;;;;;;2.40;0.60;;;22.10;86.90;;;;;;4801978;28;45522;-56
2023/09/23 08:54:53;;;;;;;1.67;0.70;;;22.00;85.50;;;;;;4745894;28;45442;-56
2023/09/23 08:57:19;;;;;;;1.20;0.52;;;22.00;84.90;;;;;;4809168;28;45798;-56
2023/09/23 09:02:51;;;;;;;1.42;0.63;;;22.00;84.30;;;;;;4794660;28;45896;-57
2023/09/23 09:05:19;;;;;;;1.85;0.63;;;22.00;84.60;;;;;;4769778;28;45429;-56
2023/09/23 09:08:21;;;;;;;1.80;0.60;;;22.00;84.70;;;;;;4767923;28;45319;-56
2023/09/23 09:11:16;;;;;;;0.98;0.50;;;22.10;84.70;;;;;;4793564;28;45477;-56
2023/09/23 09:14:11;;;;;;;0.60;0.50;;;22.00;84.80;;;;;;4872004;28;45116;-56
2023/09/23 09:16:43;;;;;;;0.73;0.50;;;22.00;85.20;;;;;;4829509;28;45316;-56
2023/09/23 09:19:11;;;;;;;2.35;0.70;;;22.10;85.60;;;;;;4830724;28;45865;-56
2023/09/23 09:24:18;;;;;;;1.85;0.57;;;22.10;85.90;;;;;;4806278;28;45570;-56
2023/09/23 09:26:47;;;;;;;1.02;0.57;;;22.10;86.20;;;;;;4877072;28;45515;-56
2023/09/23 09:29:14;;;;;;;2.33;0.85;;;22.10;86.20;;;;;;4830812;28;45950;-56
2023/09/23 09:32:23;;;;;;;0.90;0.70;;;22.10;87.30;;;;;;4801234;28;45460;-56
2023/09/23 09:35:18;;;;;;;1.90;0.60;;;22.00;87.10;;;;;;4831058;28;45288;-56
2023/09/23 09:41:30;;;;;;;2.13;0.85;;;22.10;86.20;;;;;;4775434;28;45515;-55
2023/09/23 09:44:07;;;;;;;1.75;0.50;;;22.10;85.90;;;;;;4799762;28;45314;-55
2023/09/23 09:46:40;;;;;;;1.75;0.55;;;22.00;85.70;;;;;;4876954;28;44780;-56
2023/09/23 09:49:31;;;;;;;1.10;0.50;;;22.10;85.80;;;;;;4834158;28;45166;-55
2023/09/23 09:52:17;;;;;;;2.13;0.90;;;22.10;85.80;;;;;;4772413;28;46248;-55
2023/09/23 09:57:33;;;;;;;4.22;0.77;;;22.10;85.70;;;;;;4820215;28;45138;-55
2023/09/23 10:00:01;;;;;;;0.80;0.60;;;22.00;85.80;;;;;;4809873;28;45351;-55
2023/09/23 10:02:36;;;;;;;0.70;0.50;;;22.10;85.90;;;;;;4801965;28;45457;-55
2023/09/23 10:05:42;;;;;;;1.15;0.63;;;22.10;85.80;;;;;;4866029;28;45147;-55
2023/09/23 10:08:44;;;;;;;1.75;0.55;;;22.10;85.70;;;;;;4783214;28;46193;-55
2023/09/23 10:12:08;;;;;;;1.10;0.60;;;22.10;85.80;;;;;;4807451;27;45472;-55
2023/09/23 10:14:38;;;;;;;2.83;0.65;;;22.00;85.80;;;;;;4794146;28;45831;-55
2023/09/23 10:17:09;;;;;;;1.83;0.75;;;22.10;85.80;;;;;;4809495;28;45531;-55
2023/09/23 10:20:08;;;;;;;2.15;0.80;;;22.10;85.80;;;;;;4788079;28;45452;-55
2023/09/23 10:23:08;;;;;;;4.10;0.70;;;22.10;85.90;;;;;;4821705;28;45473;-55
2023/09/23 10:25:52;;;;;;;0.88;0.50;;;22.10;85.70;;;;;;4779647;28;45949;-55
2023/09/23 10:28:21;;;;;;;1.10;0.57;;;22.00;85.70;;;;;;4817469;28;45204;-55
2023/09/23 10:34:18;;;;;;;1.48;0.70;;;22.00;85.70;;;;;;4746387;28;45372;-55
2023/09/23 10:36:51;;;;;;;2.00;0.50;;;22.00;85.70;;;;;;4794180;28;46192;-55
2023/09/23 10:39:20;;;;;;;1.65;0.70;;;22.10;85.70;;;;;;4737209;28;45235;-55
2023/09/23 10:42:12;;;;;;;2.70;0.60;;;22.00;85.60;;;;;;4775416;28;45626;-55
2023/09/23 10:45:10;;;;;;;0.75;0.30;;;22.00;85.70;;;;;;4815106;28;45358;-55
2023/09/23 10:47:44;;;;;;;0.73;0.50;;;22.00;86.10;;;;;;4784026;28;45483;-55
2023/09/23 10:50:34;;;;;;;0.65;0.30;;;22.00;86.20;;;;;;4795306;28;45135;-55
2023/09/23 10:53:21;;;;;;;1.35;0.65;;;22.10;86.10;;;;;;4770584;28;45379;-55
2023/09/23 10:56:21;;;;;;;2.22;0.45;;;22.00;86.10;;;;;;4777428;28;45672;-55
2023/09/23 10:59:19;;;;;;;1.33;0.70;;;22.10;87.10;;;;;;4795028;28;45870;-55
2023/09/23 11:01:46;;;;;;;1.77;0.43;;;22.10;86.10;;;;;;4802737;28;45157;-55
2023/09/23 11:04:28;;;;;;;1.02;0.40;;;22.10;86.30;;;;;;4784839;28;45731;-55
2023/09/23 11:10:16;;;;;;;2.47;0.60;;;22.10;86.20;;;;;;4770305;28;45111;-55
2023/09/23 11:13:05;;;;;;;0.55;0.40;;;22.10;86.30;;;;;;4815409;28;45034;-55
2023/09/23 11:15:33;;;;;;;0.85;0.35;;;22.10;86.30;;;;;;4815318;28;45276;-55
2023/09/23 11:21:02;;;;;;;1.30;0.57;;;22.10;86.40;;;;;;4790760;28;46235;-55
2023/09/23 11:23:32;;;;;;;0.65;0.40;;;22.10;86.40;;;;;;4792531;28;45184;-55
2023/09/23 11:26:20;;;;;;;1.08;0.50;;;22.10;86.40;;;;;;4794384;28;45759;-55
2023/09/23 11:31:30;;;;;;;0.80;0.30;;;22.10;86.30;;;;;;4782445;28;45856;-55
2023/09/23 11:33:58;;;;;;;0.60;0.30;;;22.10;86.20;;;;;;4803143;28;45722;-55
2023/09/23 11:36:28;;;;;;;0.98;0.32;;;22.10;86.20;;;;;;4843997;28;45438;-55
2023/09/23 11:38:56;;;;;;;0.65;0.30;;;22.10;86.30;;;;;;4762243;28;45371;-55
2023/09/23 11:41:23;;;;;;;0.80;0.35;;;22.10;86.30;;;;;;4811504;28;47160;-55
2023/09/23 11:44:11;;;;;;;1.10;0.47;;;22.10;86.10;;;;;;4804161;28;45184;-55
2023/09/23 11:47:05;;;;;;;0.77;0.40;;;22.10;86.20;;;;;;4840614;28;45542;-55
2023/09/23 11:50:16;;;;;;;1.50;0.40;;;22.10;86.00;;;;;;4820624;28;45669;-55
2023/09/23 11:55:25;;;;;;;1.00;0.50;;;22.10;86.20;;;;;;4771264;28;45489;-56
2023/09/23 11:57:59;;;;;;;2.28;0.70;;;22.10;86.30;;;;;;4752910;28;45432;-55
2023/09/23 12:00:28;;;;;;;0.60;0.50;;;22.10;86.10;;;;;;4786828;28;45357;-55
2023/09/23 12:03:34;;;;;;;0.45;0.30;;;22.10;86.10;;;;;;4807330;28;45833;-55
2023/09/23 12:06:04;;;;;;;0.40;0.30;;;22.10;86.10;;;;;;4810977;28;45364;-55
2023/09/23 12:08:31;;;;;;;0.70;0.40;;;22.10;86.20;;;;;;4773337;28;45367;-55
2023/09/23 12:11:00;;;;;;;0.85;0.45;;;22.10;86.40;;;;;;4768214;28;45384;-55
2023/09/23 12:13:28;;;;;;;1.55;0.60;;;22.10;86.30;;;;;;4799750;28;45256;-55
2023/09/23 12:16:35;;;;;;;1.02;0.57;;;22.10;86.40;;;;;;4817487;28;45763;-55
2023/09/23 12:19:03;;;;;;;0.85;0.47;;;22.10;87.30;;;;;;4799682;28;45360;-55
2023/09/23 12:21:31;;;;;;;0.75;0.45;;;22.10;86.40;;;;;;4853660;28;45434;-55
2023/09/23 12:24:00;;;;;;;1.35;0.50;;;22.10;86.40;;;;;;4813113;28;46496;-55
2023/09/23 12:26:28;;;;;;;0.60;0.40;;;22.10;86.30;;;;;;4803665;28;45505;-55
2023/09/23 12:29:26;;;;;;;2.17;0.63;;;22.10;86.40;;;;;;4794032;28;45500;-55
2023/09/23 12:32:21;;;;;;;1.52;0.70;;;22.10;86.30;;;;;;4794343;28;45770;-55
2023/09/23 12:35:25;;;;;;;0.57;0.35;;;22.10;86.40;;;;;;4799238;28;45966;-55
2023/09/23 12:38:10;;;;;;;1.02;0.60;;;22.20;86.60;;;;;;4771914;28;45344;-55
2023/09/23 12:40:37;;;;;;;0.88;0.38;;;22.10;86.50;;;;;;4803646;28;45228;-55
2023/09/23 12:43:38;;;;;;;2.05;0.57;;;22.10;86.60;;;;;;4859409;28;45256;-55
2023/09/23 12:46:21;;;;;;;1.50;0.80;;;22.10;86.60;;;;;;4865635;28;46301;-55
2023/09/23 12:49:13;;;;;;;1.55;0.68;;;22.10;86.60;;;;;;4849803;28;45395;-55
2023/09/23 12:54:46;;;;;;;1.17;0.60;;;22.10;86.60;;;;;;5027226;22;45722;-54
2023/09/23 12:57:40;;;;;;;2.90;0.60;;;22.10;86.80;;;;;;4800814;28;45433;-54
2023/09/23 13:00:26;;;;;;;0.98;0.43;;;22.00;86.60;;;;;;4776216;28;45569;-54
2023/09/23 13:06:22;;;;;;;1.08;0.60;;;22.00;86.80;;;;;;4742311;28;45484;-54
2023/09/23 13:09:11;;;;;;;2.47;0.70;;;22.00;86.60;;;;;;4811705;28;46549;-54
2023/09/23 13:12:07;;;;;;;1.75;0.70;;;22.00;86.60;;;;;;4790990;28;45453;-54
2023/09/23 13:14:52;;;;;;;1.52;0.50;;;22.00;86.60;;;;;;4746624;28;45570;-55
2023/09/23 13:17:49;;;;;;;1.48;0.55;;;22.00;86.80;;;;;;4757492;28;45383;-55
2023/09/23 13:20:37;;;;;;;2.08;0.60;;;22.10;87.00;;;;;;4784477;28;46096;-55
2023/09/23 13:23:05;;;;;;;1.55;0.45;;;22.10;86.80;;;;;;4740548;28;45125;-55
2023/09/23 13:28:41;;;;;;;1.52;0.60;;;22.10;87.00;;;;;;4753112;28;45610;-54
2023/09/23 13:31:40;;;;;;;1.60;0.73;;;22.10;87.00;;;;;;4789933;28;45613;-54
2023/09/23 13:34:29;;;;;;;0.40;0.38;;;22.10;87.00;;;;;;4767452;28;45524;-54
2023/09/23 13:37:17;;;;;;;1.10;0.57;;;22.10;87.00;;;;;;4811162;28;45286;-54
2023/09/23 13:40:07;;;;;;;0.70;0.50;;;22.10;86.90;;;;;;4814393;28;45416;-54
2023/09/23 13:42:43;;;;;;;0.95;0.52;;;22.10;87.00;;;;;;4780945;28;45988;-54
2023/09/23 13:45:37;;;;;;;1.02;0.52;;;22.10;87.20;;;;;;4777920;28;45370;-54
2023/09/23 13:48:08;;;;;;;1.17;0.60;;;22.10;87.10;;;;;;4772958;28;45346;-55
2023/09/23 13:50:44;;;;;;;1.10;0.70;;;22.10;87.10;;;;;;4755647;28;45137;-54
2023/09/23 13:53:33;;;;;;;1.88;0.60;;;22.00;87.00;;;;;;4792131;28;47393;-54
2023/09/23 13:56:00;;;;;;;0.80;0.50;;;22.10;87.00;;;;;;4749884;28;45740;-55
2023/09/23 13:58:27;;;;;;;1.23;0.50;;;22.10;88.20;;;;;;4734617;28;45512;-54
2023/09/23 14:01:15;;;;;;;2.40;0.77;;;22.00;87.20;;;;;;4750676;28;45528;-54
2023/09/23 14:03:43;;;;;;;2.88;0.60;;;22.10;87.30;;;;;;4768616;28;46474;-54
2023/09/23 14:06:10;;;;;;;2.40;0.73;;;22.00;87.30;;;;;;4766710;28;45209;-54
2023/09/23 14:09:05;;;;;;;0.93;0.60;;;22.00;87.30;;;;;;4804678;28;45125;-54
2023/09/23 14:11:48;;;;;;;1.95;0.80;;;22.00;87.30;;;;;;4758103;28;46031;-54
2023/09/23 14:14:40;;;;;;;1.90;0.50;;;22.10;87.40;;;;;;4773314;28;46063;-54
2023/09/23 14:17:52;;;;;;;1.75;0.50;;;22.00;87.20;;;;;;4733624;28;45641;-54
2023/09/23 14:20:51;;;;;;;0.98;0.50;;;22.10;87.30;;;;;;4773273;28;45729;-54
2023/09/23 14:23:41;;;;;;;1.40;0.52;;;22.10;87.10;;;;;;4777292;28;45514;-54
2023/09/23 14:26:44;;;;;;;0.52;0.40;;;22.10;87.10;;;;;;4785318;28;47565;-53
2023/09/23 14:29:11;;;;;;;1.38;0.60;;;22.10;87.10;;;;;;4757734;28;45474;-55
2023/09/23 14:31:38;;;;;;;1.77;0.60;;;22.10;87.10;;;;;;4746578;28;45424;-54
2023/09/23 14:34:14;;;;;;;1.52;0.40;;;22.10;87.00;;;;;;4757435;28;45669;-55
2023/09/23 14:37:08;;;;;;;2.05;0.60;;;22.10;87.10;;;;;;4756779;28;45431;-55
2023/09/23 14:39:35;;;;;;;1.23;0.60;;;22.10;86.80;;;;;;4781828;28;45314;-55
2023/09/23 14:42:02;;;;;;;1.40;0.45;;;22.10;87.20;;;;;;4766792;28;45744;-56
2023/09/23 14:45:03;;;;;;;1.17;0.70;;;22.10;87.60;;;;;;4759404;28;45404;-54
2023/09/23 14:47:57;;;;;;;2.80;0.63;;;22.10;87.10;;;;;;4778703;28;47843;-54
2023/09/23 14:50:35;;;;;;;1.23;0.65;;;22.10;87.00;;;;;;4746309;28;45561;-54
2023/09/23 14:56:52;;;;;;;2.15;0.40;;;22.10;86.60;;;;;;4694253;28;45329;-54
2023/09/23 14:59:42;;;;;;;2.15;0.55;;;22.10;86.40;;;;;;4774372;28;47443;-54
2023/09/23 15:02:09;;;;;;;1.65;0.50;;;22.10;86.40;;;;;;4750801;28;45381;-54
2023/09/23 15:04:45;;;;;;;1.10;0.40;;;22.10;86.40;;;;;;4770251;28;45139;-54
2023/09/23 15:07:34;;;;;;;2.05;0.70;;;22.00;86.30;;;;;;4802710;28;45733;-54
2023/09/23 15:10:31;;;;;;;1.73;0.77;;;22.00;86.20;;;;;;4753776;28;46537;-54
2023/09/23 15:13:45;;;;;;;1.75;0.68;;;22.00;86.10;;;;;;4789795;28;45524;-54
2023/09/23 15:16:25;;;;;;;1.55;0.57;;;22.10;86.20;;;;;;4785746;28;45356;-54
2023/09/23 15:19:24;;;;;;;0.90;0.50;;;22.00;86.10;;;;;;4770089;28;45357;-55
2023/09/23 15:22:12;;;;;;;2.97;0.50;;;22.00;86.10;;;;;;4743587;28;45868;-54
2023/09/23 15:24:57;;;;;;;2.70;0.65;;;22.00;86.00;;;;;;4746069;28;45580;-53
2023/09/23 15:27:52;;;;;;;1.17;0.63;;;22.00;86.10;;;;;;4772463;28;45718;-54
2023/09/23 15:31:03;;;;;;;1.10;0.40;;;22.00;85.90;;;;;;4750442;28;45104;-54
2023/09/23 15:33:59;;;;;;;2.05;0.70;;;22.00;85.90;;;;;;4724542;28;46470;-54